createdAt,value
2023-05-01T00:01:53.351Z,99.90
2023-05-01T00:04:22.529Z,99.90
2023-05-01T00:06:50.744Z,99.90
2023-05-01T00:09:18.793Z,99.90
2023-05-01T00:11:47.040Z,99.90
2023-05-01T00:14:16.623Z,99.90
2023-05-01T00:16:46.215Z,99.90
2023-05-01T00:19:18.322Z,99.90
2023-05-01T00:21:47.929Z,99.90
2023-05-01T00:24:17.043Z,99.90
2023-05-01T00:26:45.392Z,99.90
2023-05-01T00:29:14.152Z,99.90
2023-05-01T00:31:43.713Z,99.90
2023-05-01T00:34:12.346Z,1.00
2023-05-01T00:36:40.488Z,1.00
2023-05-01T00:39:08.744Z,1.00
2023-05-01T00:41:37.086Z,1.00
2023-05-01T00:44:05.131Z,1.00
2023-05-01T00:46:35.002Z,1.00
2023-05-01T00:49:05.362Z,1.00
2023-05-01T00:51:34.119Z,1.00
2023-05-01T00:54:02.506Z,1.00
2023-05-01T00:56:31.826Z,1.00
2023-05-01T00:59:01.076Z,1.00
2023-05-01T01:01:29.736Z,1.00
2023-05-01T01:03:57.931Z,1.00
2023-05-01T01:06:34.382Z,1.00
2023-05-01T01:09:18.263Z,1.00
2023-05-01T01:11:58.679Z,1.00
2023-05-01T01:14:33.279Z,1.00
2023-05-01T01:17:07.476Z,1.00
2023-05-01T01:20:13.969Z,1.00
2023-05-01T01:22:48.352Z,1.00
2023-05-01T01:25:46.258Z,1.00
2023-05-01T01:28:36.951Z,1.00
2023-05-01T01:31:15.330Z,1.00
2023-05-01T01:34:04.192Z,1.00
2023-05-01T01:36:47.626Z,1.00
2023-05-01T01:39:29.955Z,1.00
2023-05-01T01:41:59.813Z,1.00
2023-05-01T01:44:34.828Z,1.00
2023-05-01T01:47:05.972Z,1.00
2023-05-01T01:49:41.509Z,1.00
2023-05-01T01:52:13.025Z,1.00
2023-05-01T01:54:46.288Z,1.00
2023-05-01T01:57:17.663Z,1.00
2023-05-01T01:59:47.296Z,1.00
2023-05-01T02:02:17.158Z,1.00
2023-05-01T02:04:47.532Z,1.00
2023-05-01T02:07:17.459Z,1.00
2023-05-01T02:09:47.524Z,1.00
2023-05-01T02:12:17.794Z,1.00
2023-05-01T02:14:47.207Z,1.00
2023-05-01T02:17:16.818Z,1.00
2023-05-01T02:19:48.699Z,1.00
2023-05-01T02:22:18.355Z,1.00
2023-05-01T02:24:48.003Z,1.00
2023-05-01T02:27:21.100Z,15.70
2023-05-01T02:29:52.132Z,20.80
2023-05-01T02:32:20.484Z,13.90
2023-05-01T02:34:49.954Z,20.10
2023-05-01T02:37:18.357Z,76.10
2023-05-01T02:39:47.548Z,1.00
2023-05-01T02:42:17.641Z,9.60
2023-05-01T02:44:52.185Z,3.40
2023-05-01T02:47:23.897Z,44.80
2023-05-01T02:49:55.381Z,99.90
2023-05-01T02:52:24.039Z,99.90
2023-05-01T02:55:01.343Z,99.90
2023-05-01T02:57:29.685Z,99.90
2023-05-01T02:59:57.985Z,99.90
2023-05-01T03:02:26.208Z,99.90
2023-05-01T03:04:55.624Z,99.90
2023-05-01T03:07:23.663Z,99.90
2023-05-01T03:09:51.862Z,99.90
2023-05-01T03:12:19.981Z,99.90
2023-05-01T03:14:48.029Z,99.90
2023-05-01T03:17:16.029Z,99.90
2023-05-01T03:19:44.089Z,99.90
2023-05-01T03:22:13.425Z,99.90
2023-05-01T03:24:41.428Z,99.90
2023-05-01T03:27:10.192Z,99.90
2023-05-01T03:29:39.055Z,99.90
2023-05-01T03:32:07.248Z,99.90
2023-05-01T03:34:35.406Z,99.90
2023-05-01T03:37:03.490Z,99.90
2023-05-01T03:39:32.851Z,99.90
2023-05-01T03:42:32.705Z,99.90
2023-05-01T03:45:08.924Z,99.90
2023-05-01T03:47:37.027Z,99.90
2023-05-01T03:50:06.617Z,99.90
2023-05-01T03:52:35.000Z,99.90
2023-05-01T03:55:04.798Z,99.90
2023-05-01T03:57:42.133Z,99.90
2023-05-01T04:00:12.863Z,99.90
2023-05-01T04:02:43.582Z,99.90
2023-05-01T04:05:16.544Z,99.90
2023-05-01T04:07:49.384Z,1.00
2023-05-01T04:10:19.007Z,1.00
2023-05-01T04:12:56.058Z,1.00
2023-05-01T04:15:24.324Z,1.00
2023-05-01T04:17:52.726Z,1.00
2023-05-01T04:20:21.028Z,1.00
2023-05-01T04:22:49.291Z,1.00
2023-05-01T04:25:19.981Z,1.00
2023-05-01T04:27:50.707Z,1.00
2023-05-01T04:30:18.862Z,1.00
2023-05-01T04:32:47.071Z,1.00
2023-05-01T04:35:15.282Z,1.00
2023-05-01T04:37:45.835Z,1.00
2023-05-01T04:40:14.384Z,1.00
2023-05-01T04:42:44.732Z,1.00
2023-05-01T04:45:15.311Z,1.00
2023-05-01T04:47:43.897Z,99.90
2023-05-01T04:50:12.510Z,99.90
2023-05-01T04:52:41.366Z,99.90
2023-05-01T04:55:11.476Z,99.90
2023-05-01T04:57:48.712Z,99.90
2023-05-01T05:00:19.003Z,99.90
2023-05-01T05:02:54.313Z,99.90
2023-05-01T05:05:22.693Z,99.90
2023-05-01T05:07:51.296Z,99.90
2023-05-01T05:10:36.804Z,99.90
2023-05-01T05:13:32.568Z,1.00
2023-05-01T05:16:03.430Z,1.00
2023-05-01T05:18:31.609Z,1.00
2023-05-01T05:21:03.738Z,1.00
2023-05-01T05:23:31.945Z,1.00
2023-05-01T05:26:01.705Z,1.00
2023-05-01T05:28:30.660Z,1.00
2023-05-01T05:31:00.462Z,1.00
2023-05-01T05:33:29.162Z,1.00
2023-05-01T05:36:00.033Z,1.00
2023-05-01T05:38:33.263Z,1.00
2023-05-01T05:41:01.947Z,1.00
2023-05-01T05:43:32.324Z,1.00
2023-05-01T05:46:02.283Z,1.00
2023-05-01T05:48:33.110Z,1.00
2023-05-01T05:51:01.712Z,99.90
2023-05-01T05:53:30.575Z,99.90
2023-05-01T05:55:58.643Z,99.90
2023-05-01T05:58:27.140Z,99.90
2023-05-01T06:00:57.231Z,99.90
2023-05-01T06:03:27.393Z,99.90
2023-05-01T06:05:59.449Z,99.90
2023-05-01T06:08:27.752Z,99.90
2023-05-01T06:10:56.552Z,99.90
2023-05-01T06:13:24.723Z,99.90
2023-05-01T06:15:53.312Z,99.90
2023-05-01T06:18:21.431Z,99.90
2023-05-01T06:20:52.169Z,99.90
2023-05-01T06:23:20.267Z,99.90
2023-05-01T06:26:14.689Z,99.90
2023-05-01T06:28:42.887Z,99.90
2023-05-01T06:31:11.386Z,99.90
2023-05-01T06:33:45.304Z,99.90
2023-05-01T06:36:43.868Z,99.90
2023-05-01T06:39:12.112Z,99.90
2023-05-01T06:41:40.232Z,99.90
2023-05-01T06:44:08.252Z,99.90
2023-05-01T06:46:36.298Z,99.90
2023-05-01T06:49:04.660Z,99.90
2023-05-01T06:51:32.734Z,99.90
2023-05-01T06:54:02.151Z,99.90
2023-05-01T06:56:30.316Z,99.90
2023-05-01T06:58:58.468Z,99.90
2023-05-01T07:01:26.764Z,99.90
2023-05-01T07:03:54.835Z,99.90
2023-05-01T07:06:22.996Z,99.90
2023-05-01T07:08:51.938Z,99.90
2023-05-01T07:11:21.418Z,99.90
2023-05-01T07:13:49.880Z,99.90
2023-05-01T07:16:17.996Z,99.90
2023-05-01T07:18:46.047Z,99.90
2023-05-01T07:21:14.101Z,99.90
2023-05-01T07:23:42.125Z,99.90
2023-05-01T07:26:10.172Z,99.90
2023-05-01T07:28:39.658Z,99.90
2023-05-01T07:31:07.705Z,99.90
2023-05-01T07:33:35.754Z,99.90
2023-05-01T07:36:04.564Z,99.90
2023-05-01T07:38:32.659Z,99.90
2023-05-01T07:41:01.214Z,99.90
2023-05-01T07:43:29.286Z,99.90
2023-05-01T07:46:00.337Z,99.90
2023-05-01T07:48:29.450Z,99.90
2023-05-01T07:50:57.994Z,99.90
2023-05-01T07:53:26.126Z,99.90
2023-05-01T07:55:54.285Z,99.90
2023-05-01T07:58:22.365Z,99.90
2023-05-01T08:00:50.825Z,99.90
2023-05-01T08:03:20.395Z,99.90
2023-05-01T08:05:48.736Z,99.90
2023-05-01T08:08:20.710Z,99.90
2023-05-01T08:10:49.014Z,99.90
2023-05-01T08:13:17.257Z,99.90
2023-05-01T08:15:47.312Z,99.90
2023-05-01T08:18:21.091Z,99.90
2023-05-01T08:20:50.966Z,99.90
2023-05-01T08:23:19.053Z,99.90
2023-05-01T08:25:50.781Z,99.90
2023-05-01T08:28:20.936Z,99.90
2023-05-01T08:30:50.791Z,99.90
2023-05-01T08:33:18.908Z,99.90
2023-05-01T08:35:47.100Z,99.90
2023-05-01T08:38:16.858Z,99.90
2023-05-01T08:40:51.901Z,99.90
2023-05-01T08:43:20.164Z,99.90
2023-05-01T08:45:49.794Z,99.90
2023-05-01T08:48:19.352Z,99.90
2023-05-01T08:50:48.568Z,99.90
2023-05-01T08:53:19.717Z,99.90
2023-05-01T08:55:49.753Z,99.90
2023-05-01T08:58:19.578Z,99.90
2023-05-01T09:00:48.904Z,99.90
2023-05-01T09:03:18.646Z,99.90
2023-05-01T09:05:47.403Z,99.90
2023-05-01T09:08:15.951Z,99.90
2023-05-01T09:10:48.018Z,99.90
2023-05-01T09:13:20.051Z,99.90
2023-05-01T09:15:48.182Z,99.90
2023-05-01T09:18:16.436Z,99.90
2023-05-01T09:20:44.530Z,99.90
2023-05-01T09:23:13.115Z,99.90
2023-05-01T09:25:41.394Z,99.90
2023-05-01T09:28:10.885Z,99.90
2023-05-01T09:30:40.362Z,99.90
2023-05-01T09:33:10.091Z,99.90
2023-05-01T09:35:54.640Z,99.90
2023-05-01T09:38:25.207Z,99.90
2023-05-01T09:40:56.473Z,99.90
2023-05-01T09:43:30.302Z,99.90
2023-05-01T09:46:03.748Z,99.90
2023-05-01T09:48:34.803Z,99.90
2023-05-01T09:51:24.312Z,99.90
2023-05-01T09:53:53.324Z,99.90
2023-05-01T09:56:22.556Z,99.90
2023-05-01T09:58:53.413Z,99.90
2023-05-01T10:01:39.620Z,99.90
2023-05-01T10:04:09.645Z,99.90
2023-05-01T10:06:38.262Z,99.90
2023-05-01T10:09:16.380Z,99.90
2023-05-01T10:11:49.673Z,99.90
2023-05-01T10:14:20.315Z,99.90
2023-05-01T10:16:49.581Z,99.90
2023-05-01T10:19:18.702Z,99.90
2023-05-01T10:21:46.904Z,99.90
2023-05-01T10:24:16.776Z,99.90
2023-05-01T10:26:45.751Z,99.90
2023-05-01T10:29:13.923Z,99.90
2023-05-01T10:31:43.307Z,99.90
2023-05-01T10:34:12.903Z,99.90
2023-05-01T10:36:45.870Z,99.90
2023-05-01T10:39:32.218Z,99.90
2023-05-01T10:42:10.733Z,99.90
2023-05-01T10:44:39.135Z,99.90
2023-05-01T10:47:44.578Z,99.90
2023-05-01T10:50:15.843Z,99.90
2023-05-01T10:53:18.562Z,99.90
2023-05-01T10:55:48.056Z,99.90
2023-05-01T10:58:56.849Z,99.90
2023-05-01T11:01:35.504Z,1.00
2023-05-01T11:04:05.351Z,1.00
2023-05-01T11:06:36.078Z,1.00
2023-05-01T11:09:40.147Z,1.00
2023-05-01T11:12:09.168Z,1.00
2023-05-01T11:15:04.164Z,99.90
2023-05-01T11:17:49.853Z,99.90
2023-05-01T11:20:48.351Z,99.90
2023-05-01T11:23:22.142Z,99.90
2023-05-01T11:25:53.561Z,99.90
2023-05-01T11:28:22.687Z,99.90
2023-05-01T11:30:51.292Z,99.90
2023-05-01T11:33:25.779Z,99.90
2023-05-01T11:36:01.301Z,99.90
2023-05-01T11:38:30.799Z,99.90
2023-05-01T11:41:04.389Z,99.90
2023-05-01T11:43:32.882Z,99.90
2023-05-01T11:46:03.989Z,99.90
2023-05-01T11:48:32.689Z,99.90
2023-05-01T11:51:00.953Z,99.90
2023-05-01T11:53:30.670Z,99.90
2023-05-01T11:55:59.662Z,99.90
2023-05-01T11:58:36.208Z,99.90
2023-05-01T12:01:04.445Z,99.90
2023-05-01T12:03:43.244Z,99.90
2023-05-01T12:06:13.076Z,99.90
2023-05-01T12:08:45.746Z,99.90
2023-05-01T12:11:14.455Z,99.90
2023-05-01T12:13:42.782Z,99.90
2023-05-01T12:17:03.396Z,99.90
2023-05-01T12:19:31.496Z,99.90
2023-05-01T12:22:09.426Z,99.90
2023-05-01T12:24:39.838Z,1.00
2023-05-01T12:27:09.071Z,99.90
2023-05-01T12:29:44.704Z,99.90
2023-05-01T12:32:29.966Z,99.90
2023-05-01T12:34:58.396Z,99.90
2023-05-01T12:37:32.653Z,1.00
2023-05-01T12:40:02.329Z,1.00
2023-05-01T12:42:30.501Z,1.00
2023-05-01T12:45:01.750Z,1.00
2023-05-01T12:47:38.361Z,1.00
2023-05-01T12:50:07.974Z,1.00
2023-05-01T12:52:36.143Z,1.00
2023-05-01T12:55:08.736Z,1.00
2023-05-01T12:57:36.977Z,1.00
2023-05-01T13:00:06.455Z,1.00
2023-05-01T13:02:35.463Z,1.00
2023-05-01T13:05:07.739Z,1.00
2023-05-01T13:07:36.996Z,1.00
2023-05-01T13:10:07.335Z,1.00
2023-05-01T13:12:45.541Z,1.00
2023-05-01T13:15:21.049Z,1.00
2023-05-01T13:17:49.422Z,1.00
2023-05-01T13:20:27.620Z,1.00
2023-05-01T13:22:55.879Z,1.00
2023-05-01T13:25:26.009Z,1.00
2023-05-01T13:27:54.794Z,1.00
2023-05-01T13:30:32.601Z,1.00
2023-05-01T13:33:01.871Z,1.00
2023-05-01T13:35:32.736Z,99.90
2023-05-01T13:38:01.673Z,99.90
2023-05-01T13:40:30.995Z,1.00
2023-05-01T13:42:59.082Z,1.00
2023-05-01T13:45:27.689Z,1.00
2023-05-01T13:47:56.624Z,1.00
2023-05-01T13:50:24.770Z,99.90
2023-05-01T13:52:52.827Z,99.90
2023-05-01T13:55:23.014Z,99.90
2023-05-01T13:57:53.159Z,99.90
2023-05-01T14:00:22.458Z,99.90
2023-05-01T14:02:53.017Z,99.90
2023-05-01T14:05:27.752Z,99.90
2023-05-01T14:07:57.754Z,99.90
2023-05-01T14:10:28.679Z,99.90
2023-05-01T14:12:59.797Z,99.90
2023-05-01T14:15:28.715Z,99.90
2023-05-01T14:17:56.768Z,99.90
2023-05-01T14:20:26.602Z,99.90
2023-05-01T14:22:54.813Z,99.90
2023-05-01T14:25:28.453Z,99.90
2023-05-01T14:27:59.534Z,99.90
2023-05-01T14:30:29.945Z,99.90
2023-05-01T14:32:58.209Z,99.90
2023-05-01T14:35:26.411Z,99.90
2023-05-01T14:37:55.055Z,99.90
2023-05-01T14:40:27.818Z,99.90
2023-05-01T14:42:56.151Z,99.90
2023-05-01T14:45:25.539Z,99.90
2023-05-01T14:47:53.810Z,99.90
2023-05-01T14:50:23.545Z,99.90
2023-05-01T14:52:54.958Z,99.90
2023-05-01T14:55:34.715Z,99.90
2023-05-01T14:58:03.555Z,99.90
2023-05-01T15:00:33.169Z,99.90
2023-05-01T15:03:02.100Z,99.90
2023-05-01T15:05:30.178Z,99.90
2023-05-01T15:08:00.390Z,99.90
2023-05-01T15:10:28.914Z,99.90
2023-05-01T15:12:56.955Z,99.90
2023-05-01T15:15:25.959Z,99.90
2023-05-01T15:17:55.480Z,99.90
2023-05-01T15:20:24.520Z,99.90
2023-05-01T15:22:52.632Z,99.90
2023-05-01T15:25:21.095Z,99.90
2023-05-01T15:27:50.255Z,99.90
2023-05-01T15:30:19.544Z,99.90
2023-05-01T15:32:47.710Z,99.90
2023-05-01T15:35:17.494Z,99.90
2023-05-01T15:37:45.643Z,99.90
2023-05-01T15:40:13.996Z,99.90
2023-05-01T15:42:42.946Z,99.90
2023-05-01T15:45:11.890Z,99.90
2023-05-01T15:47:39.928Z,99.90
2023-05-01T15:50:11.760Z,99.90
2023-05-01T15:52:41.340Z,99.90
2023-05-01T15:55:09.936Z,99.90
2023-05-01T15:57:38.182Z,99.90
2023-05-01T16:00:08.710Z,99.90
2023-05-01T16:02:36.911Z,99.90
2023-05-01T16:05:05.804Z,99.90
2023-05-01T16:07:35.148Z,99.90
2023-05-01T16:10:05.713Z,99.90
2023-05-01T16:12:33.770Z,99.90
2023-05-01T16:15:03.420Z,99.90
2023-05-01T16:17:33.013Z,99.90
2023-05-01T16:20:02.753Z,99.90
2023-05-01T16:22:33.359Z,99.90
2023-05-01T16:25:01.606Z,99.90
2023-05-01T16:27:31.148Z,99.90
2023-05-01T16:29:59.604Z,99.90
2023-05-01T16:32:28.088Z,99.90
2023-05-01T16:34:56.117Z,99.90
2023-05-01T16:37:26.735Z,99.90
2023-05-01T16:39:54.799Z,1.00
2023-05-01T16:42:23.638Z,1.00
2023-05-01T16:44:53.078Z,1.00
2023-05-01T16:47:21.091Z,1.00
2023-05-01T16:49:49.204Z,1.00
2023-05-01T16:52:17.691Z,1.00
2023-05-01T16:54:45.963Z,1.00
2023-05-01T16:57:15.306Z,1.00
2023-05-01T16:59:44.595Z,1.00
2023-05-01T17:02:14.041Z,1.00
2023-05-01T17:04:42.142Z,1.00
2023-05-01T17:07:10.142Z,70.30
2023-05-01T17:09:38.124Z,99.90
2023-05-01T17:12:07.112Z,99.90
2023-05-01T17:14:35.245Z,1.00
2023-05-01T17:17:04.535Z,1.00
2023-05-01T17:19:38.784Z,1.00
2023-05-01T17:22:07.367Z,1.00
2023-05-01T17:24:36.264Z,1.00
2023-05-01T17:27:04.579Z,1.00
2023-05-01T17:29:32.741Z,1.00
2023-05-01T17:32:01.263Z,1.00
2023-05-01T17:34:29.537Z,1.00
2023-05-01T17:36:59.237Z,1.00
2023-05-01T17:39:28.176Z,1.00
2023-05-01T17:41:56.280Z,1.00
2023-05-01T17:44:24.280Z,1.00
2023-05-01T17:46:52.284Z,1.00
2023-05-01T17:49:20.603Z,1.00
2023-05-01T17:51:48.707Z,1.00
2023-05-01T17:54:18.127Z,1.00
2023-05-01T17:56:46.236Z,1.00
2023-05-01T17:59:14.696Z,1.00
2023-05-01T18:01:43.652Z,1.00
2023-05-01T18:04:12.740Z,1.00
2023-05-01T18:06:41.060Z,1.00
2023-05-01T18:09:10.439Z,2.30
2023-05-01T18:11:39.810Z,74.30
2023-05-01T18:14:08.038Z,1.00
2023-05-01T18:16:36.142Z,1.00
2023-05-01T18:19:04.443Z,1.00
2023-05-01T18:21:32.827Z,99.90
2023-05-01T18:24:02.392Z,99.90
2023-05-01T18:26:30.722Z,99.90
2023-05-01T18:29:00.801Z,1.00
2023-05-01T18:31:29.015Z,1.00
2023-05-01T18:33:58.070Z,1.00
2023-05-01T18:36:27.318Z,1.00
2023-05-01T18:38:57.422Z,1.00
2023-05-01T18:41:26.451Z,99.90
2023-05-01T18:43:57.737Z,99.90
2023-05-01T18:46:27.769Z,99.90
2023-05-01T18:48:55.992Z,99.90
2023-05-01T18:51:24.314Z,99.90
2023-05-01T18:53:52.369Z,1.00
2023-05-01T18:56:20.885Z,1.00
2023-05-01T18:58:48.991Z,1.00
2023-05-01T19:01:17.137Z,1.00
2023-05-01T19:03:46.835Z,1.00
2023-05-01T19:06:15.288Z,1.00
2023-05-01T19:08:43.494Z,1.00
2023-05-01T19:11:11.594Z,1.00
2023-05-01T19:13:40.184Z,1.00
2023-05-01T19:16:08.217Z,1.00
2023-05-01T19:18:37.530Z,1.00
2023-05-01T19:21:07.076Z,1.00
2023-05-01T19:23:37.422Z,1.00
2023-05-01T19:26:08.056Z,1.00
2023-05-01T19:28:38.472Z,1.00
2023-05-01T19:31:07.651Z,99.90
2023-05-01T19:33:35.825Z,99.90
2023-05-01T19:36:04.170Z,1.00
2023-05-01T19:38:34.188Z,1.00
2023-05-01T19:41:02.466Z,1.00
2023-05-01T19:43:30.528Z,1.00
2023-05-01T19:45:58.697Z,1.00
2023-05-01T19:48:26.796Z,1.00
2023-05-01T19:50:54.917Z,1.00
2023-05-01T19:53:22.997Z,1.00
2023-05-01T19:55:52.436Z,1.00
2023-05-01T19:58:20.653Z,1.00
2023-05-01T20:00:48.966Z,1.00
2023-05-01T20:03:17.373Z,1.00
2023-05-01T20:05:45.614Z,1.00
2023-05-01T20:08:13.846Z,1.00
2023-05-01T20:10:42.009Z,1.00
2023-05-01T20:13:11.484Z,1.00
2023-05-01T20:15:41.238Z,1.00
2023-05-01T20:18:14.824Z,1.00
2023-05-01T20:20:43.120Z,1.00
2023-05-01T20:23:12.477Z,1.00
2023-05-01T20:25:40.605Z,1.00
2023-05-01T20:28:10.152Z,1.00
2023-05-01T20:30:41.036Z,1.00
2023-05-01T20:33:09.468Z,1.00
2023-05-01T20:35:37.918Z,1.00
2023-05-01T20:38:06.213Z,1.00
2023-05-01T20:40:34.768Z,1.00
2023-05-01T20:43:02.800Z,1.00
2023-05-01T20:45:30.909Z,1.00
2023-05-01T20:48:01.070Z,1.00
2023-05-01T20:50:29.463Z,1.00
2023-05-01T20:52:57.652Z,1.00
2023-05-01T20:55:26.488Z,1.00
2023-05-01T20:57:54.499Z,1.00
2023-05-01T21:00:22.560Z,1.00
2023-05-01T21:02:51.802Z,1.00
2023-05-01T21:05:21.480Z,1.00
2023-05-01T21:07:49.484Z,1.00
2023-05-01T21:10:17.517Z,1.00
2023-05-01T21:12:45.674Z,1.00
2023-05-01T21:15:13.791Z,1.00
2023-05-01T21:17:43.404Z,1.00
2023-05-01T21:20:16.133Z,1.00
2023-05-01T21:22:48.110Z,1.00
2023-05-01T21:25:17.139Z,1.00
2023-05-01T21:27:45.417Z,1.00
2023-05-01T21:30:16.809Z,1.00
2023-05-01T21:32:45.277Z,1.00
2023-05-01T21:35:17.242Z,1.00
2023-05-01T21:37:49.195Z,99.90
2023-05-01T21:40:17.649Z,99.90
2023-05-01T21:42:46.123Z,99.90
2023-05-01T21:45:15.914Z,99.90
2023-05-01T21:47:45.742Z,99.90
2023-05-01T21:50:15.585Z,99.90
2023-05-01T21:52:44.537Z,1.00
2023-05-01T21:55:18.872Z,1.00
2023-05-01T21:57:47.503Z,1.00
2023-05-01T22:00:15.930Z,1.00
2023-05-01T22:02:46.337Z,1.00
2023-05-01T22:05:16.827Z,1.00
2023-05-01T22:07:47.188Z,1.00
2023-05-01T22:10:18.840Z,1.00
2023-05-01T22:12:48.800Z,1.00
2023-05-01T22:15:17.397Z,1.00
2023-05-01T22:17:46.452Z,1.00
2023-05-01T22:20:14.640Z,1.00
2023-05-01T22:22:43.382Z,1.00
2023-05-01T22:25:13.119Z,1.00
2023-05-01T22:27:42.626Z,1.00
2023-05-01T22:30:11.881Z,1.00
2023-05-01T22:32:40.152Z,1.00
2023-05-01T22:35:09.315Z,1.00
2023-05-01T22:37:37.365Z,1.00
2023-05-01T22:40:06.691Z,1.00
2023-05-01T22:42:34.831Z,1.00
2023-05-01T22:45:04.486Z,1.00
2023-05-01T22:47:32.539Z,1.00
2023-05-01T22:50:01.476Z,1.00
2023-05-01T22:52:29.895Z,1.00
2023-05-01T22:54:57.962Z,1.00
2023-05-01T22:57:26.241Z,1.00
2023-05-01T22:59:54.502Z,1.00
2023-05-01T23:02:23.995Z,1.00
2023-05-01T23:04:52.249Z,1.00
2023-05-01T23:07:20.598Z,1.00
2023-05-01T23:09:48.844Z,1.00
2023-05-01T23:12:22.707Z,1.00
2023-05-01T23:14:50.840Z,1.00
2023-05-01T23:17:18.957Z,1.00
2023-05-01T23:19:48.574Z,1.00
2023-05-01T23:22:16.628Z,1.00
2023-05-01T23:24:48.215Z,1.00
2023-05-01T23:27:17.252Z,1.00
2023-05-01T23:29:55.069Z,1.00
2023-05-01T23:32:28.178Z,1.00
2023-05-01T23:35:03.616Z,1.00
2023-05-01T23:37:31.752Z,1.00
2023-05-01T23:40:00.718Z,1.00
2023-05-01T23:42:29.396Z,1.00
2023-05-01T23:44:58.058Z,1.00
2023-05-01T23:47:26.522Z,1.00
2023-05-01T23:49:54.967Z,1.00
2023-05-01T23:52:24.464Z,1.00
2023-05-01T23:54:52.782Z,1.00
2023-05-01T23:57:20.974Z,99.90
2023-05-01T23:59:48.993Z,99.90
